Terminal Aerodrome Forecast
Issued by NWS

Home | Current Version | Previous Version | Text Only | Print | Product List | Glossary On
Versions: 1 2 3 4 5 6 7 8 9 10 11 12 13 14 15 16 17
000
FTUS46 KLOX 251100
TAFSBA
TAF
KSBA 251126Z 2512/2612 VRB03KT P6SM BKN150
     FM251700 26012KT P6SM -SHRA SCT025 BKN050
     FM252200 27018G28KT P6SM SCT035 BKN060
     FM260200 31010KT P6SM SCT100 WS010/36030KT=

USA.gov is the U.S. government's official web portal to all federal, state and local government web resources and services.